createdAt,value
2019-05-14T00:00:21.671Z,4.34
2019-05-14T00:05:27.697Z,5.73
2019-05-14T00:10:44.612Z,6.25
2019-05-14T00:15:43.081Z,6.68
2019-05-14T00:20:51.227Z,4.71
2019-05-14T00:25:57.907Z,6.68
2019-05-14T00:31:05.522Z,5.31
2019-05-14T00:36:13.313Z,8.10
2019-05-14T00:41:21.525Z,5.81
2019-05-14T00:46:28.237Z,6.41
2019-05-14T00:51:35.901Z,7.45
2019-05-14T00:56:43.648Z,7.85
2019-05-14T01:01:51.761Z,7.82
2019-05-14T01:06:58.505Z,9.44
2019-05-14T01:12:06.141Z,8.58
2019-05-14T01:17:13.909Z,6.12
2019-05-14T01:22:21.549Z,10.29
2019-05-14T01:27:29.216Z,7.59
2019-05-14T01:32:36.857Z,9.33
2019-05-14T01:37:44.548Z,7.62
2019-05-14T01:42:52.388Z,7.26
2019-05-14T01:48:01.263Z,8.59
2019-05-14T01:53:06.927Z,9.56
2019-05-14T01:58:14.584Z,7.67
2019-05-14T02:03:22.176Z,8.06
2019-05-14T02:08:31.967Z,9.77
2019-05-14T02:13:37.029Z,9.95
2019-05-14T02:18:44.706Z,8.54
2019-05-14T02:23:52.296Z,8.57
2019-05-14T02:29:01.892Z,7.78
2019-05-14T02:34:10.037Z,8.76
2019-05-14T02:39:14.528Z,9.28
2019-05-14T02:44:22.121Z,9.35
2019-05-14T02:49:30.264Z,7.69
2019-05-14T02:54:40.467Z,9.12
2019-05-14T02:59:44.754Z,9.17
2019-05-14T03:04:52.396Z,9.24
2019-05-14T03:10:00.041Z,9.25
2019-05-14T03:15:09.616Z,8.65
2019-05-14T03:20:14.990Z,8.68
2019-05-14T03:25:22.624Z,10.06
2019-05-14T03:30:32.381Z,7.24
2019-05-14T03:35:43.811Z,9.96
2019-05-14T03:40:44.852Z,8.98
2019-05-14T03:45:52.536Z,9.12
2019-05-14T03:51:00.630Z,10.90
2019-05-14T03:56:10.173Z,9.43
2019-05-14T04:01:14.854Z,11.31
2019-05-14T04:06:22.473Z,11.39
2019-05-14T04:11:30.128Z,10.68
2019-05-14T04:16:39.932Z,8.75
2019-05-14T04:21:44.896Z,13.93
2019-05-14T04:27:02.098Z,10.75
2019-05-14T04:32:00.367Z,12.32
2019-05-14T04:37:09.727Z,12.65
2019-05-14T04:42:14.377Z,11.16
2019-05-14T04:47:27.831Z,12.49
2019-05-14T04:52:29.396Z,12.43
2019-05-14T04:57:39.228Z,13.07
2019-05-14T05:02:44.053Z,11.69
2019-05-14T05:07:54.711Z,11.91
2019-05-14T05:12:52.418Z,12.24
2019-05-14T05:18:00.034Z,12.64
2019-05-14T05:23:08.491Z,11.65
2019-05-14T05:28:14.858Z,11.79
2019-05-14T05:33:22.486Z,11.51
2019-05-14T05:38:30.117Z,10.19
2019-05-14T05:43:39.367Z,12.25
2019-05-14T05:48:44.974Z,11.13
2019-05-14T05:53:52.752Z,9.66
2019-05-14T05:59:00.743Z,10.12
2019-05-14T06:04:08.770Z,11.42
2019-05-14T06:09:14.632Z,9.65
2019-05-14T06:14:22.266Z,11.86
2019-05-14T06:19:29.864Z,10.36
2019-05-14T06:24:38.963Z,9.91
2019-05-14T06:29:44.760Z,10.56
2019-05-14T06:34:52.397Z,9.35
2019-05-14T06:40:00.048Z,10.20
2019-05-14T06:55:21.657Z,10.33
2019-05-14T07:00:29.295Z,9.65
2019-05-14T07:05:39.025Z,7.70
2019-05-14T07:10:44.053Z,8.37
2019-05-14T07:15:51.680Z,9.67
2019-05-14T07:20:59.293Z,9.54
2019-05-14T07:26:08.464Z,9.77
2019-05-14T07:31:14.130Z,9.31
2019-05-14T07:36:21.866Z,7.89
2019-05-14T07:41:29.498Z,8.25
2019-05-14T07:46:38.930Z,8.54
2019-05-14T07:51:44.270Z,8.85
2019-05-14T07:56:53.031Z,7.22
2019-05-14T08:01:59.035Z,7.83
2019-05-14T08:07:08.923Z,8.48
2019-05-14T08:12:16.362Z,9.86
2019-05-14T08:17:21.121Z,10.18
2019-05-14T08:22:29.272Z,9.39
2019-05-14T08:27:35.921Z,9.00
2019-05-14T08:32:43.524Z,8.81
2019-05-14T08:38:04.691Z,8.39
2019-05-14T08:42:58.447Z,9.45
2019-05-14T08:48:05.949Z,8.22
2019-05-14T08:53:13.693Z,6.21
2019-05-14T08:58:22.048Z,6.41
2019-05-14T09:03:29.631Z,7.03
2019-05-14T09:08:39.090Z,8.82
2019-05-14T09:13:44.473Z,6.96
2019-05-14T09:18:52.088Z,7.07
2019-05-14T09:23:59.927Z,7.82
2019-05-14T09:29:19.486Z,9.36
2019-05-14T09:34:14.751Z,6.58
2019-05-14T09:39:22.364Z,6.13
2019-05-14T09:44:30.005Z,12.22
2019-05-14T09:49:38.915Z,7.97
2019-05-14T09:54:44.840Z,5.79
2019-05-14T09:59:52.441Z,6.66
2019-05-14T10:05:00.124Z,5.45
2019-05-14T10:10:07.785Z,7.56
2019-05-14T10:15:15.425Z,6.74
2019-05-14T10:20:36.408Z,7.27
2019-05-14T10:25:31.256Z,6.29
2019-05-14T10:30:38.864Z,7.52
2019-05-14T10:35:48.384Z,6.76
2019-05-14T10:40:54.813Z,6.97
2019-05-14T10:46:02.501Z,5.44
2019-05-14T10:51:10.153Z,7.95
2019-05-14T10:56:19.070Z,7.15
2019-05-14T11:01:24.945Z,5.88
2019-05-14T11:06:32.672Z,6.88
2019-05-14T11:11:43.754Z,6.90
2019-05-14T11:16:42.075Z,8.38
2019-05-14T11:21:49.472Z,5.05
2019-05-14T11:26:59.074Z,6.03
2019-05-14T11:32:04.338Z,6.43
2019-05-14T11:37:11.945Z,8.53
2019-05-14T11:42:20.022Z,6.91
2019-05-14T11:47:26.748Z,6.97
2019-05-14T11:52:34.382Z,6.74
2019-05-14T11:57:42.088Z,10.10
2019-05-14T12:02:49.669Z,6.64
2019-05-14T12:08:10.969Z,7.86
2019-05-14T12:12:58.591Z,6.69
2019-05-14T12:18:06.203Z,9.28
2019-05-14T12:23:14.076Z,5.93
2019-05-14T12:28:21.761Z,7.56
2019-05-14T12:33:31.176Z,6.23
2019-05-14T12:38:38.237Z,6.64
2019-05-14T12:43:44.050Z,7.39
2019-05-14T12:48:50.904Z,8.71
2019-05-14T12:53:58.508Z,5.98
2019-05-14T12:59:06.155Z,7.07
2019-05-14T13:04:13.748Z,7.35
2019-05-14T13:09:21.823Z,8.14
2019-05-14T13:14:28.560Z,7.67
2019-05-14T13:19:37.968Z,6.96
2019-05-14T13:24:43.320Z,6.91
2019-05-14T13:29:51.230Z,9.17
2019-05-14T13:34:59.258Z,6.81
2019-05-14T13:40:08.978Z,6.25
2019-05-14T13:45:13.182Z,7.90
2019-05-14T13:50:20.828Z,7.18
2019-05-14T13:55:30.633Z,7.48
2019-05-14T14:00:35.586Z,6.42
2019-05-14T14:05:43.261Z,6.83
2019-05-14T14:10:53.688Z,7.63
2019-05-14T14:15:58.880Z,8.02
2019-05-14T14:21:05.325Z,6.20
2019-05-14T14:26:13.320Z,8.45
2019-05-14T14:31:20.950Z,6.41
2019-05-14T14:36:29.910Z,7.34
2019-05-14T14:41:38.297Z,6.46
2019-05-14T14:46:42.986Z,6.46
2019-05-14T14:51:50.593Z,8.04
2019-05-14T14:56:59.212Z,6.29
2019-05-14T15:02:05.358Z,10.17
2019-05-14T15:12:22.640Z,6.13
2019-05-14T15:17:30.283Z,5.57
2019-05-14T15:22:38.191Z,6.66
2019-05-14T15:27:45.792Z,6.04
2019-05-14T15:32:53.416Z,6.90
2019-05-14T15:38:01.013Z,8.96
2019-05-14T15:43:09.930Z,7.85
2019-05-14T15:48:15.863Z,7.61
2019-05-14T15:53:23.475Z,7.53
2019-05-14T15:58:31.064Z,7.30
2019-05-14T16:03:41.403Z,8.31
2019-05-14T16:08:48.849Z,6.67
2019-05-14T16:13:54.929Z,6.71
2019-05-14T16:19:02.529Z,5.94
2019-05-14T16:24:10.157Z,6.72
2019-05-14T16:29:19.248Z,9.55
2019-05-14T16:34:25.100Z,8.03
2019-05-14T16:39:32.704Z,6.58
2019-05-14T16:44:40.316Z,6.37
2019-05-14T16:49:48.177Z,6.80
2019-05-14T16:55:13.302Z,5.71
2019-05-14T17:00:02.265Z,6.26
2019-05-14T17:05:09.885Z,6.18
2019-05-14T17:10:18.203Z,6.93
2019-05-14T17:15:34.229Z,6.88
2019-05-14T17:20:31.840Z,7.32
2019-05-14T17:25:39.465Z,8.07
2019-05-14T17:30:49.179Z,7.30
2019-05-14T17:35:54.297Z,8.09
2019-05-14T17:41:01.873Z,6.22
2019-05-14T17:46:10.003Z,7.11
2019-05-14T17:51:18.148Z,6.62
2019-05-14T17:56:23.925Z,8.87
2019-05-14T18:01:31.555Z,5.56
2019-05-14T18:06:39.183Z,8.00
2019-05-14T18:11:48.962Z,8.07
2019-05-14T18:16:53.928Z,7.02
2019-05-14T18:22:01.533Z,7.17
2019-05-14T18:27:09.150Z,6.37
2019-05-14T18:32:18.869Z,5.62
2019-05-14T18:37:23.913Z,7.29
2019-05-14T18:42:40.628Z,6.61
2019-05-14T18:47:39.863Z,8.79
2019-05-14T18:52:48.367Z,6.89
2019-05-14T18:58:01.369Z,6.53
2019-05-14T19:02:58.974Z,8.06
2019-05-14T19:08:07.300Z,6.44
2019-05-14T19:13:14.903Z,6.12
2019-05-14T19:18:22.510Z,7.01
2019-05-14T19:23:39.247Z,7.52
2019-05-14T19:28:38.799Z,7.53
2019-05-14T19:33:43.959Z,9.92
2019-05-14T19:38:52.582Z,7.66
2019-05-14T19:44:00.205Z,6.49
2019-05-14T19:49:08.325Z,7.27
2019-05-14T19:54:15.923Z,6.84
2019-05-14T19:59:25.924Z,6.52
2019-05-14T20:04:30.774Z,7.42
2019-05-14T20:09:38.783Z,6.41
2019-05-14T20:14:45.496Z,5.93
2019-05-14T20:19:53.119Z,6.01
2019-05-14T20:25:00.969Z,6.75
2019-05-14T20:30:08.771Z,6.69
2019-05-14T20:35:29.879Z,7.24
2019-05-14T20:40:23.320Z,7.04
2019-05-14T20:45:30.930Z,7.48
2019-05-14T20:50:38.711Z,7.74
2019-05-14T20:55:46.317Z,8.68
2019-05-14T21:00:54.011Z,8.14
2019-05-14T21:06:01.678Z,8.09
2019-05-14T21:11:09.356Z,8.75
2019-05-14T21:16:18.139Z,8.30
2019-05-14T21:21:24.389Z,7.77
2019-05-14T21:26:32.374Z,10.50
2019-05-14T21:31:40.068Z,10.71
2019-05-14T21:36:48.391Z,10.59
2019-05-14T21:41:56.075Z,8.44
2019-05-14T21:47:03.758Z,10.17
2019-05-14T21:57:19.091Z,11.29
2019-05-14T22:02:28.261Z,9.11
2019-05-14T22:07:34.256Z,8.49
2019-05-14T22:12:41.911Z,9.50
2019-05-14T22:17:49.587Z,12.43
2019-05-14T22:22:59.105Z,13.82
2019-05-14T22:28:12.270Z,13.56
2019-05-14T22:33:11.671Z,13.62
2019-05-14T22:38:20.310Z,13.96
2019-05-14T22:43:39.900Z,11.30
2019-05-14T22:48:27.635Z,11.10
2019-05-14T22:53:35.302Z,10.29
2019-05-14T22:58:44.161Z,9.86
2019-05-14T23:03:51.803Z,10.08
2019-05-14T23:08:59.574Z,9.62
2019-05-14T23:14:07.238Z,11.67
2019-05-14T23:19:15.026Z,11.23
2019-05-14T23:24:22.686Z,12.13
2019-05-14T23:29:30.390Z,11.89
2019-05-14T23:34:38.175Z,12.51
2019-05-14T23:39:45.874Z,11.96
2019-05-14T23:44:53.521Z,11.90
2019-05-14T23:50:01.304Z,12.46
2019-05-14T23:55:09.175Z,13.48
